createdAt,value
2019-06-10T00:00:36.929Z,67.74
2019-06-10T00:03:11.476Z,67.86
2019-06-10T00:05:44.947Z,68.03
2019-06-10T00:08:20.706Z,67.99
2019-06-10T00:10:53.644Z,67.51
2019-06-10T00:13:27.614Z,67.24
2019-06-10T00:16:02.662Z,67.27
2019-06-10T00:18:42.168Z,67.32
2019-06-10T00:21:11.289Z,67.22
2019-06-10T00:23:44.536Z,67.26
2019-06-10T00:26:17.632Z,67.40
2019-06-10T00:28:51.884Z,67.59
2019-06-10T00:31:24.912Z,67.63
2019-06-10T00:33:59.291Z,67.50
2019-06-10T00:36:32.792Z,67.34
2019-06-10T00:39:08.938Z,67.39
2019-06-10T00:41:43.521Z,67.39
2019-06-10T00:44:16.872Z,67.44
2019-06-10T00:46:51.660Z,67.54
2019-06-10T00:49:25.978Z,67.52
2019-06-10T00:52:01.239Z,67.28
2019-06-10T00:54:34.783Z,67.10
2019-06-10T00:57:10.030Z,67.15
2019-06-10T00:59:43.720Z,67.41
2019-06-10T01:02:16.983Z,67.63
2019-06-10T01:04:51.387Z,67.37
2019-06-10T01:07:24.744Z,67.04
2019-06-10T01:10:00.979Z,66.77
2019-06-10T01:12:33.653Z,66.84
2019-06-10T01:15:07.427Z,67.06
2019-06-10T01:17:41.725Z,67.49
2019-06-10T01:20:16.116Z,67.62
2019-06-10T01:22:51.500Z,67.44
2019-06-10T01:25:24.068Z,67.31
2019-06-10T01:27:57.255Z,67.40
2019-06-10T01:30:31.224Z,67.61
2019-06-10T01:33:04.796Z,67.56
2019-06-10T01:35:37.901Z,67.54
2019-06-10T01:38:13.453Z,67.48
2019-06-10T01:40:46.039Z,67.53
2019-06-10T01:43:21.230Z,67.50
2019-06-10T01:45:53.906Z,67.12
2019-06-10T01:48:40.466Z,66.96
2019-06-10T01:51:02.044Z,67.13
2019-06-10T01:53:35.251Z,66.95
2019-06-10T01:56:10.378Z,66.76
2019-06-10T01:58:43.627Z,66.70
2019-06-10T02:01:23.356Z,66.83
2019-06-10T02:03:56.425Z,67.01
2019-06-10T02:06:31.494Z,67.16
2019-06-10T02:09:07.322Z,67.39
2019-06-10T02:11:41.363Z,67.72
2019-06-10T02:14:17.761Z,67.74
2019-06-10T02:16:51.609Z,67.70
2019-06-10T02:19:25.060Z,67.49
2019-06-10T02:21:58.153Z,67.45
2019-06-10T02:24:31.781Z,67.36
2019-06-10T02:27:06.129Z,67.45
2019-06-10T02:29:41.218Z,67.38
2019-06-10T02:32:20.076Z,67.39
2019-06-10T02:35:03.536Z,67.42
2019-06-10T02:37:31.745Z,67.68
2019-06-10T02:40:04.087Z,67.84
2019-06-10T02:42:37.276Z,67.82
2019-06-10T02:45:13.785Z,67.68
2019-06-10T02:47:45.716Z,67.67
2019-06-10T02:50:32.089Z,67.53
2019-06-10T02:52:58.289Z,67.35
2019-06-10T02:55:35.018Z,67.36
2019-06-10T02:58:09.633Z,67.18
2019-06-10T03:00:48.273Z,67.15
2019-06-10T03:03:22.837Z,67.14
2019-06-10T03:05:53.627Z,67.08
2019-06-10T03:08:31.611Z,67.15
2019-06-10T03:11:04.125Z,67.12
2019-06-10T03:13:37.154Z,67.02
2019-06-10T03:16:28.123Z,66.71
2019-06-10T03:19:03.047Z,66.55
2019-06-10T03:21:36.214Z,66.28
2019-06-10T03:24:09.316Z,66.34
2019-06-10T03:26:42.833Z,66.41
2019-06-10T03:29:16.514Z,66.61
2019-06-10T03:31:49.635Z,66.64
2019-06-10T03:34:30.740Z,66.18
2019-06-10T03:36:57.996Z,66.15
2019-06-10T03:39:32.355Z,65.98
2019-06-10T03:42:05.269Z,65.80
2019-06-10T03:44:38.455Z,65.92
2019-06-10T03:47:12.170Z,66.05
2019-06-10T03:49:52.400Z,65.95
2019-06-10T03:52:19.573Z,65.67
2019-06-10T03:54:52.637Z,65.48
2019-06-10T03:57:26.945Z,65.34
2019-06-10T04:00:02.258Z,65.16
2019-06-10T04:02:36.438Z,65.14
2019-06-10T04:05:13.085Z,65.12
2019-06-10T04:07:44.986Z,65.03
2019-06-10T04:10:17.990Z,64.98
2019-06-10T04:12:52.373Z,64.90
2019-06-10T04:15:28.363Z,64.88
2019-06-10T04:18:00.044Z,64.82
2019-06-10T04:20:34.030Z,65.02
2019-06-10T04:23:07.334Z,65.11
2019-06-10T04:25:43.578Z,65.13
2019-06-10T04:28:17.749Z,65.17
2019-06-10T04:30:53.207Z,65.04
2019-06-10T04:33:26.194Z,65.04
2019-06-10T04:35:59.662Z,65.18
2019-06-10T04:38:32.964Z,65.15
2019-06-10T04:41:06.427Z,65.15
2019-06-10T04:43:40.259Z,65.11
2019-06-10T04:46:13.379Z,65.10
2019-06-10T04:48:47.278Z,65.06
2019-06-10T04:51:22.926Z,64.92
2019-06-10T04:53:54.851Z,64.72
2019-06-10T04:56:29.333Z,64.88
2019-06-10T04:59:03.262Z,64.77
2019-06-10T05:01:36.758Z,64.67
2019-06-10T05:04:12.576Z,64.75
2019-06-10T05:06:45.686Z,64.72
2019-06-10T05:09:19.179Z,64.63
2019-06-10T05:11:52.356Z,64.43
2019-06-10T05:14:28.538Z,64.35
2019-06-10T05:17:02.255Z,64.06
2019-06-10T05:19:38.541Z,63.90
2019-06-10T05:22:12.507Z,63.78
2019-06-10T05:24:45.657Z,63.66
2019-06-10T05:27:20.455Z,63.54
2019-06-10T05:29:53.658Z,63.08
2019-06-10T05:32:27.842Z,62.95
2019-06-10T05:35:03.489Z,62.76
2019-06-10T05:37:36.057Z,62.75
2019-06-10T05:40:09.166Z,62.77
2019-06-10T05:42:42.742Z,62.64
2019-06-10T05:45:16.142Z,62.51
2019-06-10T05:47:49.436Z,62.46
2019-06-10T05:50:24.049Z,62.27
2019-06-10T05:52:57.220Z,61.67
2019-06-10T05:55:33.479Z,61.62
2019-06-10T05:58:06.127Z,61.63
2019-06-10T06:00:42.847Z,61.99
2019-06-10T06:03:16.155Z,62.27
2019-06-10T06:05:48.992Z,62.05
2019-06-10T06:08:22.845Z,61.82
2019-06-10T06:10:56.211Z,61.85
2019-06-10T06:13:32.702Z,61.41
2019-06-10T06:16:06.021Z,61.62
2019-06-10T06:18:41.981Z,61.33
2019-06-10T06:21:25.317Z,61.69
2019-06-10T06:23:52.815Z,61.46
2019-06-10T06:26:28.371Z,61.55
2019-06-10T06:29:02.270Z,61.10
2019-06-10T06:31:36.494Z,60.79
2019-06-10T06:34:13.737Z,60.62
2019-06-10T06:36:46.846Z,60.61
2019-06-10T06:39:19.692Z,60.63
2019-06-10T06:41:53.650Z,60.56
2019-06-10T06:44:27.559Z,60.01
2019-06-10T06:47:02.711Z,60.07
2019-06-10T06:49:37.098Z,60.19
2019-06-10T06:52:12.834Z,60.21
2019-06-10T06:54:46.148Z,60.42
2019-06-10T06:57:19.327Z,59.80
2019-06-10T06:59:52.713Z,59.39
2019-06-10T07:02:25.772Z,59.11
2019-06-10T07:04:58.700Z,58.87
2019-06-10T07:07:33.084Z,58.61
2019-06-10T07:10:09.031Z,58.29
2019-06-10T07:12:43.933Z,57.32
2019-06-10T07:15:19.330Z,57.19
2019-06-10T07:17:52.644Z,57.19
2019-06-10T07:20:25.655Z,57.11
2019-06-10T07:22:58.698Z,56.84
2019-06-10T07:25:34.369Z,56.80
2019-06-10T07:28:06.647Z,55.99
2019-06-10T07:30:47.266Z,54.93
2019-06-10T07:33:15.294Z,54.93
2019-06-10T07:35:48.094Z,54.76
2019-06-10T07:38:24.031Z,54.13
2019-06-10T07:40:56.038Z,53.38
2019-06-10T07:43:29.382Z,52.79
2019-06-10T07:46:03.618Z,52.24
2019-06-10T07:48:39.558Z,52.13
2019-06-10T07:51:13.397Z,52.36
2019-06-10T07:53:46.898Z,52.13
2019-06-10T07:56:19.894Z,51.55
2019-06-10T07:58:53.163Z,51.04
2019-06-10T08:01:26.591Z,50.81
2019-06-10T08:03:59.539Z,49.45
2019-06-10T08:06:34.773Z,50.05
2019-06-10T08:09:07.970Z,49.85
2019-06-10T08:11:44.936Z,49.02
2019-06-10T08:14:16.298Z,48.15
2019-06-10T08:16:52.902Z,48.77
2019-06-10T08:19:34.320Z,48.46
2019-06-10T08:22:02.903Z,48.18
2019-06-10T08:24:37.326Z,47.40
2019-06-10T08:27:12.082Z,47.62
2019-06-10T08:29:48.047Z,47.25
2019-06-10T08:32:24.367Z,46.09
2019-06-10T08:34:56.618Z,46.07
2019-06-10T08:37:33.044Z,46.37
2019-06-10T08:40:07.053Z,45.75
2019-06-10T08:42:43.621Z,45.80
2019-06-10T08:45:17.346Z,45.16
2019-06-10T08:47:50.044Z,45.24
2019-06-10T08:50:24.883Z,45.55
2019-06-10T08:53:10.360Z,45.54
2019-06-10T08:55:35.404Z,45.81
2019-06-10T08:58:13.016Z,44.80
2019-06-10T09:00:49.374Z,44.42
2019-06-10T09:03:23.310Z,44.10
2019-06-10T09:05:58.451Z,42.61
2019-06-10T09:08:32.854Z,40.77
2019-06-10T09:11:05.993Z,40.62
2019-06-10T09:13:40.754Z,40.67
2019-06-10T09:16:19.167Z,40.45
2019-06-10T09:18:55.018Z,40.55
2019-06-10T09:21:26.566Z,39.81
2019-06-10T09:24:01.255Z,40.05
2019-06-10T09:26:34.210Z,39.69
2019-06-10T09:29:07.685Z,38.26
2019-06-10T09:31:46.713Z,37.72
2019-06-10T09:34:36.746Z,38.18
2019-06-10T09:37:12.434Z,37.64
2019-06-10T09:39:51.836Z,38.34
2019-06-10T09:42:23.878Z,38.15
2019-06-10T09:44:57.178Z,38.22
2019-06-10T09:47:34.012Z,38.64
2019-06-10T09:50:08.151Z,37.64
2019-06-10T09:52:47.456Z,37.34
2019-06-10T09:55:23.320Z,36.03
2019-06-10T09:57:59.913Z,36.03
2019-06-10T10:00:47.531Z,35.45
2019-06-10T10:03:19.605Z,35.10
2019-06-10T10:06:10.087Z,36.09
2019-06-10T10:08:32.887Z,36.01
2019-06-10T10:11:06.026Z,36.24
2019-06-10T10:13:39.141Z,35.50
2019-06-10T10:16:13.142Z,34.70
2019-06-10T10:18:50.439Z,34.06
2019-06-10T10:21:22.304Z,33.14
2019-06-10T10:24:06.942Z,33.23
2019-06-10T10:26:30.573Z,30.57
2019-06-10T10:29:05.164Z,31.65
2019-06-10T10:31:39.386Z,32.97
2019-06-10T10:34:13.643Z,33.07
2019-06-10T10:36:48.446Z,31.92
2019-06-10T10:39:25.168Z,33.48
2019-06-10T10:41:58.111Z,31.95
2019-06-10T10:44:32.003Z,32.79
2019-06-10T10:47:05.431Z,31.99
2019-06-10T10:49:38.838Z,31.75
2019-06-10T10:52:13.750Z,31.67
2019-06-10T10:54:47.946Z,30.13
2019-06-10T10:57:23.153Z,29.45
2019-06-10T10:59:56.389Z,29.22
2019-06-10T11:02:32.059Z,28.98
2019-06-10T11:05:06.088Z,28.81
2019-06-10T11:07:42.293Z,28.96
2019-06-10T11:10:15.488Z,28.87
2019-06-10T11:12:53.731Z,28.39
2019-06-10T11:15:29.039Z,28.60
2019-06-10T11:18:05.926Z,30.22
2019-06-10T11:20:39.129Z,31.74
2019-06-10T11:23:12.459Z,31.11
2019-06-10T11:25:45.834Z,30.68
2019-06-10T11:28:22.807Z,29.96
2019-06-10T11:30:57.399Z,30.04
2019-06-10T11:33:32.653Z,30.16
2019-06-10T11:36:04.759Z,30.09
2019-06-10T11:38:37.879Z,29.81
2019-06-10T11:41:13.386Z,29.07
2019-06-10T11:43:50.489Z,27.73
2019-06-10T11:46:23.851Z,27.95
2019-06-10T11:48:58.919Z,28.33
2019-06-10T11:51:33.025Z,27.85
2019-06-10T11:54:06.037Z,28.53
2019-06-10T11:56:39.129Z,29.68
2019-06-10T11:59:13.550Z,30.38
2019-06-10T12:01:48.971Z,30.33
2019-06-10T12:04:23.888Z,30.30
2019-06-10T12:06:57.105Z,29.47
2019-06-10T12:09:33.367Z,30.00
2019-06-10T12:12:05.893Z,29.79
2019-06-10T12:14:38.988Z,28.76
2019-06-10T12:17:24.872Z,28.23
2019-06-10T12:19:49.783Z,28.37
2019-06-10T12:22:22.886Z,28.29
2019-06-10T12:25:24.195Z,28.54
2019-06-10T12:27:32.827Z,27.38
2019-06-10T12:30:09.483Z,27.50
2019-06-10T12:32:44.841Z,27.63
2019-06-10T12:35:18.130Z,27.49
2019-06-10T12:37:56.270Z,27.14
2019-06-10T12:40:27.366Z,27.27
2019-06-10T12:43:06.791Z,26.83
2019-06-10T12:45:38.866Z,26.66
2019-06-10T12:48:14.466Z,26.54
2019-06-10T12:50:47.922Z,26.75
2019-06-10T12:53:22.912Z,26.79
2019-06-10T12:55:57.249Z,25.53
2019-06-10T12:58:33.747Z,25.71
2019-06-10T13:01:08.015Z,25.54
2019-06-10T13:03:43.747Z,25.60
2019-06-10T13:06:17.380Z,25.60
2019-06-10T13:08:52.978Z,25.76
2019-06-10T13:11:25.267Z,26.02
2019-06-10T13:14:00.036Z,25.78
2019-06-10T13:16:34.361Z,25.11
2019-06-10T13:19:14.545Z,25.62
2019-06-10T13:21:49.778Z,25.71
2019-06-10T13:24:23.072Z,26.39
2019-06-10T13:26:56.546Z,25.74
2019-06-10T13:29:33.151Z,25.19
2019-06-10T13:32:07.686Z,24.59
2019-06-10T13:34:43.916Z,24.50
2019-06-10T13:37:17.091Z,24.60
2019-06-10T13:39:52.307Z,24.87
2019-06-10T13:42:27.752Z,24.76
2019-06-10T13:45:06.768Z,23.64
2019-06-10T13:47:42.840Z,23.77
2019-06-10T13:50:19.210Z,23.95
2019-06-10T13:52:52.189Z,24.21
2019-06-10T13:55:27.056Z,24.19
2019-06-10T13:58:03.931Z,24.02
2019-06-10T14:00:45.841Z,24.19
2019-06-10T14:03:15.886Z,24.76
2019-06-10T14:05:46.787Z,25.26
2019-06-10T14:08:19.221Z,25.17
2019-06-10T14:10:55.146Z,25.00
2019-06-10T14:13:33.264Z,24.51
2019-06-10T14:16:07.603Z,24.53
2019-06-10T14:18:42.375Z,24.59
2019-06-10T14:21:18.734Z,25.19
2019-06-10T14:23:52.100Z,25.49
2019-06-10T14:26:36.770Z,26.17
2019-06-10T14:29:02.894Z,26.93
2019-06-10T14:31:43.559Z,27.61
2019-06-10T14:34:18.036Z,27.48
2019-06-10T14:36:52.484Z,27.38
2019-06-10T14:39:25.839Z,26.99
2019-06-10T14:41:59.442Z,26.69
2019-06-10T14:44:33.040Z,26.72
2019-06-10T14:47:06.580Z,27.16
2019-06-10T14:49:42.341Z,27.49
2019-06-10T14:52:16.947Z,27.70
2019-06-10T14:54:50.071Z,27.79
2019-06-10T14:57:24.042Z,28.06
2019-06-10T14:59:57.466Z,27.46
2019-06-10T15:02:33.304Z,26.88
2019-06-10T15:05:07.226Z,27.51
2019-06-10T15:07:42.288Z,28.09
2019-06-10T15:10:17.693Z,28.38
2019-06-10T15:12:52.924Z,28.55
2019-06-10T15:15:29.619Z,28.66
2019-06-10T15:18:03.116Z,28.88
2019-06-10T15:20:37.257Z,28.23
2019-06-10T15:23:11.487Z,27.86
2019-06-10T15:25:52.442Z,27.91
2019-06-10T15:28:21.107Z,27.78
2019-06-10T15:30:55.093Z,27.90
2019-06-10T15:33:32.677Z,27.47
2019-06-10T15:36:06.050Z,27.06
2019-06-10T15:38:39.281Z,27.31
2019-06-10T15:41:18.298Z,27.81
2019-06-10T15:43:52.975Z,28.49
2019-06-10T15:46:25.565Z,29.03
2019-06-10T15:48:58.604Z,29.71
2019-06-10T15:51:33.129Z,29.97
2019-06-10T15:54:06.319Z,29.80
2019-06-10T15:56:49.915Z,29.32
2019-06-10T15:59:18.630Z,28.54
2019-06-10T16:01:53.114Z,28.51
2019-06-10T16:04:29.915Z,28.63
2019-06-10T16:07:03.170Z,28.66
2019-06-10T16:09:36.416Z,29.19
2019-06-10T16:12:14.718Z,29.56
2019-06-10T16:14:46.358Z,29.53
2019-06-10T16:17:19.359Z,29.38
2019-06-10T16:19:53.366Z,29.24
2019-06-10T16:22:26.593Z,29.75
2019-06-10T16:24:59.721Z,30.29
2019-06-10T16:27:47.415Z,30.05
2019-06-10T16:30:09.075Z,30.09
2019-06-10T16:32:46.323Z,31.01
2019-06-10T16:35:18.882Z,31.45
2019-06-10T16:37:54.561Z,31.50
2019-06-10T16:40:27.363Z,32.07
2019-06-10T16:43:00.583Z,31.66
2019-06-10T16:45:34.095Z,31.57
2019-06-10T16:48:08.386Z,31.18
2019-06-10T16:50:42.605Z,30.89
2019-06-10T16:53:15.159Z,30.76
2019-06-10T16:55:48.204Z,30.59
2019-06-10T16:58:27.935Z,30.92
2019-06-10T17:01:02.952Z,31.07
2019-06-10T17:03:35.224Z,31.52
2019-06-10T17:06:08.341Z,32.26
2019-06-10T17:08:43.510Z,33.21
2019-06-10T17:11:16.619Z,33.45
2019-06-10T17:13:52.562Z,32.96
2019-06-10T17:16:27.323Z,33.34
2019-06-10T17:19:02.278Z,33.90
2019-06-10T17:21:39.325Z,33.74
2019-06-10T17:24:13.337Z,33.49
2019-06-10T17:26:46.447Z,33.53
2019-06-10T17:29:19.826Z,33.37
2019-06-10T17:31:53.247Z,32.34
2019-06-10T17:34:28.062Z,31.58
2019-06-10T17:37:03.111Z,30.87
2019-06-10T17:39:36.367Z,33.56
2019-06-10T17:42:12.246Z,35.44
2019-06-10T17:44:45.049Z,37.36
2019-06-10T17:47:18.177Z,39.63
2019-06-10T17:49:51.383Z,40.62
2019-06-10T17:52:25.956Z,42.73
2019-06-10T17:54:59.112Z,43.09
2019-06-10T17:57:36.065Z,43.89
2019-06-10T18:00:14.102Z,43.73
2019-06-10T18:02:45.272Z,44.29
2019-06-10T18:05:18.941Z,44.63
2019-06-10T18:07:52.814Z,45.70
2019-06-10T18:10:27.595Z,44.56
2019-06-10T18:13:13.142Z,46.36
2019-06-10T18:15:36.944Z,47.38
2019-06-10T18:18:12.818Z,49.13
2019-06-10T18:20:45.868Z,51.15
2019-06-10T18:23:22.899Z,51.69
2019-06-10T18:25:55.888Z,53.20
2019-06-10T18:28:31.355Z,54.06
2019-06-10T18:31:06.103Z,54.85
2019-06-10T18:33:42.484Z,55.08
2019-06-10T18:36:17.286Z,55.19
2019-06-10T18:38:52.699Z,55.80
2019-06-10T18:41:27.848Z,56.25
2019-06-10T18:44:22.596Z,56.79
2019-06-10T18:46:51.885Z,56.53
2019-06-10T18:49:26.425Z,55.72
2019-06-10T18:52:00.727Z,56.52
2019-06-10T18:54:37.353Z,56.10
2019-06-10T18:57:11.660Z,55.60
2019-06-10T18:59:45.717Z,56.98
2019-06-10T19:02:19.668Z,57.50
2019-06-10T19:04:54.784Z,57.82
2019-06-10T19:07:33.485Z,58.39
2019-06-10T19:10:09.209Z,59.04
2019-06-10T19:12:44.583Z,59.01
2019-06-10T19:15:20.413Z,58.77
2019-06-10T19:17:55.409Z,57.82
2019-06-10T19:20:33.592Z,57.66
2019-06-10T19:23:07.071Z,58.44
2019-06-10T19:25:44.426Z,58.04
2019-06-10T19:28:18.592Z,57.23
2019-06-10T19:30:53.403Z,56.71
2019-06-10T19:33:28.444Z,56.63
2019-06-10T19:36:24.833Z,56.01
2019-06-10T19:38:58.657Z,55.37
2019-06-10T19:41:36.607Z,55.92
2019-06-10T19:44:10.250Z,55.84
2019-06-10T19:46:44.252Z,56.18
2019-06-10T19:49:18.673Z,57.13
2019-06-10T19:51:53.554Z,57.20
2019-06-10T19:54:28.321Z,56.46
2019-06-10T19:57:04.005Z,56.43
2019-06-10T20:00:02.768Z,56.38
2019-06-10T20:02:13.731Z,55.84
2019-06-10T20:04:47.766Z,55.29
2019-06-10T20:07:23.066Z,55.26
2019-06-10T20:09:56.541Z,55.40
2019-06-10T20:12:32.316Z,55.62
2019-06-10T20:15:07.805Z,55.63
2019-06-10T20:17:41.680Z,55.95
2019-06-10T20:20:14.745Z,56.41
2019-06-10T20:22:48.169Z,57.14
2019-06-10T20:25:22.371Z,57.64
2019-06-10T20:27:56.209Z,57.45
2019-06-10T20:30:29.639Z,57.16
2019-06-10T20:33:03.539Z,56.72
2019-06-10T20:35:37.522Z,56.64
2019-06-10T20:38:13.152Z,56.76
2019-06-10T20:40:47.155Z,57.13
2019-06-10T20:43:22.407Z,57.70
2019-06-10T20:45:58.230Z,58.01
2019-06-10T20:48:33.194Z,58.15
2019-06-10T20:51:07.437Z,58.38
2019-06-10T20:53:43.205Z,58.39
2019-06-10T20:56:20.120Z,58.36
2019-06-10T20:58:52.522Z,58.55
2019-06-10T21:01:25.782Z,58.53
2019-06-10T21:03:58.798Z,58.81
2019-06-10T21:06:32.683Z,59.31
2019-06-10T21:09:09.381Z,59.66
2019-06-10T21:11:45.444Z,60.01
2019-06-10T21:14:17.138Z,60.02
2019-06-10T21:16:51.063Z,60.41
2019-06-10T21:19:24.285Z,60.54
2019-06-10T21:21:57.226Z,60.49
2019-06-10T21:24:32.229Z,60.08
2019-06-10T21:27:05.138Z,60.44
2019-06-10T21:29:38.309Z,60.79
2019-06-10T21:32:12.442Z,60.64
2019-06-10T21:34:47.695Z,60.60
2019-06-10T21:37:22.566Z,60.31
2019-06-10T21:39:56.153Z,60.40
2019-06-10T21:42:29.338Z,60.33
2019-06-10T21:45:03.421Z,60.27
2019-06-10T21:47:36.869Z,60.18
2019-06-10T21:50:12.472Z,60.46
2019-06-10T21:52:46.137Z,60.43
2019-06-10T21:55:22.288Z,60.41
2019-06-10T21:57:55.283Z,60.34
2019-06-10T22:00:31.278Z,60.37
2019-06-10T22:03:05.543Z,60.41
2019-06-10T22:05:38.660Z,60.70
2019-06-10T22:08:12.552Z,60.97
2019-06-10T22:10:47.733Z,61.30
2019-06-10T22:13:22.373Z,61.37
2019-06-10T22:16:15.151Z,61.39
2019-06-10T22:18:49.133Z,61.54
2019-06-10T22:21:22.829Z,61.54
2019-06-10T22:23:57.134Z,61.85
2019-06-10T22:26:32.125Z,62.09
2019-06-10T22:29:15.823Z,62.40
2019-06-10T22:31:49.288Z,62.49
2019-06-10T22:34:23.599Z,62.47
2019-06-10T22:36:57.694Z,62.55
2019-06-10T22:39:32.536Z,62.61
2019-06-10T22:42:05.720Z,62.61
2019-06-10T22:44:39.120Z,62.62
2019-06-10T22:47:12.336Z,62.71
2019-06-10T22:49:45.858Z,62.77
2019-06-10T22:52:19.401Z,62.80
2019-06-10T22:54:55.136Z,62.88
2019-06-10T22:57:27.051Z,63.05
2019-06-10T23:00:02.868Z,63.26
2019-06-10T23:02:34.993Z,63.60
2019-06-10T23:05:08.185Z,63.62
2019-06-10T23:07:43.387Z,63.63
2019-06-10T23:10:16.412Z,63.40
2019-06-10T23:12:51.324Z,63.29
2019-06-10T23:15:25.507Z,63.23
2019-06-10T23:18:00.055Z,63.26
2019-06-10T23:20:33.510Z,63.47
2019-06-10T23:23:06.597Z,63.57
2019-06-10T23:25:39.669Z,63.57
2019-06-10T23:28:13.144Z,63.50
2019-06-10T23:30:47.359Z,63.49
2019-06-10T23:33:22.923Z,63.70
2019-06-10T23:35:56.538Z,63.82
2019-06-10T23:38:29.546Z,64.07
2019-06-10T23:41:03.818Z,64.30
2019-06-10T23:43:37.415Z,64.42
2019-06-10T23:46:12.092Z,64.39
2019-06-10T23:48:45.452Z,64.47
2019-06-10T23:51:22.642Z,64.60
2019-06-10T23:53:58.417Z,64.76
2019-06-10T23:56:32.587Z,64.88
2019-06-10T23:59:05.491Z,64.83
